Time;durP1;ratioP1;P1;durP2;ratioP2;P2;SDS_P1;SDS_P2;PMS_P1;PMS_P2;Temp;Humidity;BMP_temperature;BMP_pressure;BME280_temperature;BME280_humidity;BME280_pressure;Samples;Min_cycle;Max_cycle;Signal;HPM_P1;HPM_P2
2023/05/24 00:00:05;;;;;;;74.93;7.35;;;;;;;;;;4240703;28;20301;-56
2023/05/24 00:02:28;;;;;;;102.40;7.38;;;;;;;;;;4241217;28;20050;-56
2023/05/24 00:04:49;;;;;;;42.70;5.57;;;;;;;;;;4238226;28;20113;-56
2023/05/24 00:07:10;;;;;;;22.92;5.80;;;;;;;;;;4245434;27;20100;-56
2023/05/24 00:09:30;;;;;;;94.15;7.25;;;;;;;;;;4244387;28;20084;-56
2023/05/24 00:11:50;;;;;;;68.70;7.50;;;;;;;;;;4245982;28;20116;-56
2023/05/24 00:14:11;;;;;;;64.28;7.53;;;;;;;;;;4244809;28;20242;-56
2023/05/24 00:16:31;;;;;;;115.53;10.00;;;;;;;;;;4244926;28;20042;-56
2023/05/24 00:18:51;;;;;;;120.93;10.27;;;;;;;;;;4248999;28;20141;-56
2023/05/24 00:21:12;;;;;;;11.02;6.47;;;;;;;;;;4241971;28;20290;-56
2023/05/24 00:23:32;;;;;;;40.55;6.78;;;;;;;;;;4241053;28;20046;-56
2023/05/24 00:25:53;;;;;;;30.13;6.60;;;;;;;;;;4248147;28;20231;-56
2023/05/24 00:28:13;;;;;;;5.70;5.57;;;;;;;;;;4244772;28;20078;-56
2023/05/24 00:30:33;;;;;;;20.75;5.32;;;;;;;;;;4236280;28;20115;-56
2023/05/24 00:32:54;;;;;;;27.13;6.38;;;;;;;;;;4239313;28;20049;-56
2023/05/24 00:35:14;;;;;;;22.95;4.97;;;;;;;;;;4244397;28;20123;-56
2023/05/24 00:37:36;;;;;;;5.78;5.57;;;;;;;;;;4238946;28;20109;-56
2023/05/24 00:39:56;;;;;;;21.65;6.90;;;;;;;;;;4232364;28;20104;-56
2023/05/24 00:42:17;;;;;;;4.78;4.53;;;;;;;;;;4237068;28;20046;-56
2023/05/24 00:44:37;;;;;;;16.48;5.65;;;;;;;;;;4239236;28;20349;-56
2023/05/24 00:46:57;;;;;;;5.35;5.25;;;;;;;;;;4233602;28;20047;-56
2023/05/24 00:49:19;;;;;;;4.80;4.40;;;;;;;;;;4229131;28;20369;-56
2023/05/24 00:51:39;;;;;;;4.55;4.25;;;;;;;;;;4236282;28;20103;-56
2023/05/24 00:54:00;;;;;;;44.38;6.43;;;;;;;;;;4241479;28;20051;-56
2023/05/24 00:56:21;;;;;;;5.70;5.18;;;;;;;;;;4234989;28;20042;-56
2023/05/24 00:58:42;;;;;;;4.85;4.75;;;;;;;;;;4237526;28;20078;-56
2023/05/24 01:01:03;;;;;;;4.75;4.55;;;;;;;;;;4238328;28;20066;-56
2023/05/24 01:03:24;;;;;;;7.20;4.70;;;;;;;;;;4236673;28;20038;-56
2023/05/24 01:05:45;;;;;;;6.20;5.65;;;;;;;;;;4234844;28;20055;-56
2023/05/24 01:08:20;;;;;;;3.95;3.80;;;;;;;;;;4235197;28;20047;-56
2023/05/24 01:11:13;;;;;;;8.00;5.22;;;;;;;;;;4247866;28;20051;-56
2023/05/24 01:13:36;;;;;;;45.30;5.40;;;;;;;;;;4202767;28;20059;-57
2023/05/24 01:16:01;;;;;;;6.93;4.63;;;;;;;;;;4242001;28;20042;-56
2023/05/24 01:18:29;;;;;;;48.35;5.85;;;;;;;;;;4242229;28;20053;-56
2023/05/24 01:20:51;;;;;;;78.60;6.72;;;;;;;;;;4242415;28;20042;-56
2023/05/24 01:23:31;;;;;;;12.15;4.68;;;;;;;;;;4244527;28;20049;-56
2023/05/24 01:25:51;;;;;;;5.65;5.22;;;;;;;;;;4238822;28;20086;-56
2023/05/24 01:28:12;;;;;;;5.65;4.10;;;;;;;;;;4238624;28;20238;-55
2023/05/24 01:30:32;;;;;;;5.13;4.85;;;;;;;;;;4239771;28;20054;-56
2023/05/24 01:32:52;;;;;;;5.72;4.90;;;;;;;;;;4237351;28;20051;-56
2023/05/24 01:35:12;;;;;;;4.32;4.22;;;;;;;;;;4235548;28;20093;-56
2023/05/24 01:37:33;;;;;;;4.55;4.35;;;;;;;;;;4239494;28;20042;-56
2023/05/24 01:39:53;;;;;;;3.88;3.78;;;;;;;;;;4239895;28;20040;-56
2023/05/24 01:42:16;;;;;;;5.22;4.50;;;;;;;;;;4243287;28;20055;-56
2023/05/24 01:44:43;;;;;;;6.38;4.45;;;;;;;;;;4242842;28;20050;-56
2023/05/24 01:47:16;;;;;;;57.72;6.38;;;;;;;;;;4243302;28;20246;-56
2023/05/24 01:49:39;;;;;;;4.88;4.53;;;;;;;;;;4241905;28;20119;-56
2023/05/24 01:52:20;;;;;;;49.78;5.25;;;;;;;;;;4237851;28;20055;-57
2023/05/24 01:54:43;;;;;;;11.88;5.15;;;;;;;;;;4242840;28;20099;-56
2023/05/24 01:57:05;;;;;;;13.10;5.03;;;;;;;;;;4246743;28;20122;-56
2023/05/24 01:59:27;;;;;;;53.17;5.85;;;;;;;;;;4234574;28;20059;-56
2023/05/24 02:01:48;;;;;;;56.58;5.75;;;;;;;;;;4240608;28;20103;-56
2023/05/24 02:04:10;;;;;;;152.88;9.75;;;;;;;;;;4245987;28;20078;-56
2023/05/24 02:06:30;;;;;;;88.40;6.00;;;;;;;;;;4244145;28;20081;-56
2023/05/24 02:08:52;;;;;;;30.80;5.18;;;;;;;;;;4231499;28;20361;-56
2023/05/24 02:11:12;;;;;;;6.88;4.32;;;;;;;;;;4246792;28;20054;-56
2023/05/24 02:13:32;;;;;;;123.90;8.45;;;;;;;;;;4246213;28;20044;-56
2023/05/24 02:15:52;;;;;;;53.20;5.88;;;;;;;;;;4240867;28;20047;-56
2023/05/24 02:18:13;;;;;;;41.67;5.18;;;;;;;;;;4232713;28;20254;-56
2023/05/24 02:20:36;;;;;;;54.80;5.63;;;;;;;;;;4245319;28;20038;-56
2023/05/24 02:22:57;;;;;;;61.17;6.28;;;;;;;;;;4241667;28;20066;-56
2023/05/24 02:25:17;;;;;;;29.95;4.53;;;;;;;;;;4239808;28;20062;-56
2023/05/24 02:27:37;;;;;;;62.45;4.47;;;;;;;;;;4239825;28;20051;-57
2023/05/24 02:29:58;;;;;;;18.05;4.55;;;;;;;;;;4238741;28;20086;-56
2023/05/24 02:32:18;;;;;;;13.43;3.30;;;;;;;;;;4243784;28;20050;-56
2023/05/24 02:34:38;;;;;;;3.95;3.75;;;;;;;;;;4244477;28;20042;-56
2023/05/24 02:36:59;;;;;;;18.10;5.03;;;;;;;;;;4244925;28;20384;-56
2023/05/24 02:39:19;;;;;;;14.77;3.33;;;;;;;;;;4244958;28;20089;-56
2023/05/24 02:41:40;;;;;;;134.30;7.25;;;;;;;;;;4243226;28;20095;-56
2023/05/24 02:44:00;;;;;;;21.35;4.40;;;;;;;;;;4244056;28;20094;-56
2023/05/24 02:46:20;;;;;;;64.65;6.10;;;;;;;;;;4245126;28;20076;-56
2023/05/24 02:48:41;;;;;;;4.45;4.15;;;;;;;;;;4241149;28;20374;-56
2023/05/24 02:51:02;;;;;;;3.58;3.30;;;;;;;;;;4243861;28;20062;-56
2023/05/24 02:53:22;;;;;;;56.10;5.72;;;;;;;;;;4242570;28;20055;-56
2023/05/24 02:55:42;;;;;;;15.20;4.47;;;;;;;;;;4241473;28;20086;-56
2023/05/24 02:58:03;;;;;;;7.10;4.78;;;;;;;;;;4241933;28;20043;-56
2023/05/24 03:00:23;;;;;;;7.20;3.63;;;;;;;;;;4239727;28;20058;-56
2023/05/24 03:02:46;;;;;;;22.02;4.82;;;;;;;;;;4246116;28;20370;-56
2023/05/24 03:05:07;;;;;;;4.65;4.35;;;;;;;;;;4237263;28;20389;-56
2023/05/24 03:07:27;;;;;;;3.70;3.65;;;;;;;;;;4241682;28;20628;-55
2023/05/24 03:09:47;;;;;;;4.63;4.43;;;;;;;;;;4239635;28;20150;-56
2023/05/24 03:12:07;;;;;;;4.30;3.78;;;;;;;;;;4246661;28;20043;-56
2023/05/24 03:14:27;;;;;;;32.35;4.85;;;;;;;;;;4241244;28;20238;-56
2023/05/24 03:16:48;;;;;;;53.00;4.97;;;;;;;;;;4244932;28;20070;-56
2023/05/24 03:19:08;;;;;;;18.48;3.65;;;;;;;;;;4241862;28;20046;-56
2023/05/24 03:21:30;;;;;;;43.55;5.30;;;;;;;;;;4241625;28;20239;-56
2023/05/24 03:23:51;;;;;;;107.85;7.85;;;;;;;;;;4239015;28;20141;-56
2023/05/24 03:26:12;;;;;;;5.38;4.07;;;;;;;;;;4241110;28;20078;-56
2023/05/24 03:28:32;;;;;;;89.80;6.50;;;;;;;;;;4242291;28;20116;-56
2023/05/24 03:30:53;;;;;;;46.95;5.95;;;;;;;;;;4246484;28;20400;-56
2023/05/24 03:33:13;;;;;;;60.97;6.22;;;;;;;;;;4235160;28;20052;-56
2023/05/24 03:35:33;;;;;;;25.73;5.65;;;;;;;;;;4243299;28;20410;-56
2023/05/24 03:37:53;;;;;;;4.43;4.00;;;;;;;;;;4245509;28;20096;-56
2023/05/24 03:40:13;;;;;;;10.95;5.57;;;;;;;;;;4242906;27;20038;-56
2023/05/24 03:42:33;;;;;;;27.40;5.43;;;;;;;;;;4230276;28;20108;-56
2023/05/24 03:44:53;;;;;;;7.65;5.10;;;;;;;;;;4247058;28;20077;-56
2023/05/24 03:47:14;;;;;;;127.75;9.98;;;;;;;;;;4246950;28;20046;-56
2023/05/24 03:49:34;;;;;;;180.57;13.32;;;;;;;;;;4241016;28;20056;-56
2023/05/24 03:51:54;;;;;;;44.55;5.80;;;;;;;;;;4246282;28;20362;-56
2023/05/24 03:54:14;;;;;;;44.97;5.50;;;;;;;;;;4246430;28;20038;-56
2023/05/24 03:56:34;;;;;;;77.07;7.07;;;;;;;;;;4244036;28;20042;-56
2023/05/24 03:58:56;;;;;;;50.92;6.32;;;;;;;;;;4238582;28;20046;-56
2023/05/24 04:01:16;;;;;;;42.80;6.32;;;;;;;;;;4242065;28;20045;-56
2023/05/24 04:03:55;;;;;;;97.93;7.47;;;;;;;;;;4249449;28;20062;-56
2023/05/24 04:06:15;;;;;;;55.28;5.60;;;;;;;;;;4248062;28;20050;-56
2023/05/24 04:08:37;;;;;;;16.00;5.57;;;;;;;;;;4245702;28;20043;-56
2023/05/24 04:10:57;;;;;;;70.78;7.53;;;;;;;;;;4244699;28;20046;-58
2023/05/24 04:13:18;;;;;;;119.95;8.40;;;;;;;;;;4244635;28;20335;-58
2023/05/24 04:15:38;;;;;;;122.38;9.60;;;;;;;;;;4243099;28;20246;-58
2023/05/24 04:17:59;;;;;;;102.68;7.45;;;;;;;;;;4242547;28;20072;-58
2023/05/24 04:20:22;;;;;;;40.33;5.50;;;;;;;;;;4242276;28;20054;-58
2023/05/24 04:22:43;;;;;;;64.13;6.13;;;;;;;;;;4240450;28;20053;-58
2023/05/24 04:25:03;;;;;;;50.65;6.15;;;;;;;;;;4240814;28;20097;-58
2023/05/24 04:27:24;;;;;;;41.55;5.97;;;;;;;;;;4241447;28;20239;-58
2023/05/24 04:29:48;;;;;;;24.63;5.30;;;;;;;;;;4243131;28;20085;-58
2023/05/24 04:32:09;;;;;;;111.15;8.43;;;;;;;;;;4236829;28;20145;-59
2023/05/24 04:34:32;;;;;;;39.22;4.93;;;;;;;;;;4238613;28;20243;-58
2023/05/24 04:36:53;;;;;;;44.50;5.30;;;;;;;;;;4237957;28;20042;-58
2023/05/24 04:39:13;;;;;;;30.27;4.78;;;;;;;;;;4239852;28;20055;-58
2023/05/24 04:41:37;;;;;;;101.15;8.15;;;;;;;;;;4237951;28;20288;-58
2023/05/24 04:44:01;;;;;;;31.38;5.30;;;;;;;;;;4245477;28;20107;-58
2023/05/24 04:46:21;;;;;;;44.30;5.97;;;;;;;;;;4248089;28;20099;-58
2023/05/24 04:48:42;;;;;;;49.88;5.78;;;;;;;;;;4241551;28;20270;-59
2023/05/24 04:51:03;;;;;;;7.82;4.57;;;;;;;;;;4241615;28;20050;-58
2023/05/24 04:53:23;;;;;;;36.22;5.68;;;;;;;;;;4239735;27;20050;-58
2023/05/24 04:55:44;;;;;;;8.18;5.13;;;;;;;;;;4240770;28;20043;-58
2023/05/24 04:58:04;;;;;;;44.55;5.68;;;;;;;;;;4240317;28;20042;-58
2023/05/24 05:00:24;;;;;;;22.25;5.15;;;;;;;;;;4240489;28;20078;-58
2023/05/24 05:02:44;;;;;;;20.88;5.03;;;;;;;;;;4235974;28;20326;-58
2023/05/24 05:05:05;;;;;;;16.75;5.50;;;;;;;;;;4235933;28;20142;-59
2023/05/24 05:07:25;;;;;;;4.45;3.75;;;;;;;;;;4240829;28;20050;-59
2023/05/24 05:09:46;;;;;;;4.50;4.40;;;;;;;;;;4236064;28;20062;-58
2023/05/24 05:12:06;;;;;;;35.58;5.70;;;;;;;;;;4216184;28;20124;-58
2023/05/24 05:14:27;;;;;;;7.70;4.13;;;;;;;;;;4235249;28;20054;-58
2023/05/24 05:16:48;;;;;;;5.13;4.78;;;;;;;;;;4236396;28;20069;-58
2023/05/24 05:19:08;;;;;;;8.05;4.90;;;;;;;;;;4231149;28;20039;-58
2023/05/24 05:21:28;;;;;;;82.65;8.02;;;;;;;;;;4227849;28;20050;-59
2023/05/24 05:23:49;;;;;;;89.72;8.05;;;;;;;;;;4238095;28;20107;-59
2023/05/24 05:26:10;;;;;;;181.38;12.13;;;;;;;;;;4236749;28;20387;-60
2023/05/24 05:28:30;;;;;;;227.35;15.18;;;;;;;;;;4235896;28;20093;-59
2023/05/24 05:30:50;;;;;;;11.02;4.32;;;;;;;;;;4232023;28;20106;-60
2023/05/24 05:33:11;;;;;;;28.50;6.15;;;;;;;;;;4252461;28;20061;-59
2023/05/24 05:35:32;;;;;;;97.78;7.57;;;;;;;;;;4250935;28;20053;-59
2023/05/24 05:37:52;;;;;;;91.47;6.60;;;;;;;;;;4247985;28;20106;-60
2023/05/24 05:40:12;;;;;;;29.25;5.40;;;;;;;;;;4242854;27;20084;-59
2023/05/24 05:42:32;;;;;;;10.55;5.28;;;;;;;;;;4245953;28;20046;-59
2023/05/24 05:44:53;;;;;;;58.22;6.53;;;;;;;;;;4243177;28;20370;-60
2023/05/24 05:47:13;;;;;;;99.40;7.88;;;;;;;;;;4244560;28;20080;-59
2023/05/24 05:49:35;;;;;;;6.95;5.20;;;;;;;;;;4246049;28;20046;-59
2023/05/24 05:51:55;;;;;;;25.15;5.88;;;;;;;;;;4240780;28;20082;-60
2023/05/24 05:54:17;;;;;;;28.85;6.05;;;;;;;;;;4240007;28;20059;-60
2023/05/24 05:56:43;;;;;;;11.77;6.80;;;;;;;;;;4241541;28;20115;-59
2023/05/24 05:59:03;;;;;;;93.53;9.23;;;;;;;;;;4243809;28;20050;-59
2023/05/24 06:01:23;;;;;;;93.43;9.68;;;;;;;;;;4235560;28;20254;-59
2023/05/24 06:03:44;;;;;;;146.40;10.15;;;;;;;;;;4238894;28;20401;-59
2023/05/24 06:06:04;;;;;;;13.05;5.15;;;;;;;;;;4242679;28;20051;-59
2023/05/24 06:08:25;;;;;;;106.15;9.43;;;;;;;;;;4241931;28;20085;-59
2023/05/24 06:10:45;;;;;;;88.55;8.80;;;;;;;;;;4234021;28;20051;-59
2023/05/24 06:13:06;;;;;;;73.95;7.40;;;;;;;;;;4235671;28;20073;-59
2023/05/24 06:15:26;;;;;;;58.65;7.00;;;;;;;;;;4241883;28;20050;-59
2023/05/24 06:17:47;;;;;;;27.20;6.20;;;;;;;;;;4242981;28;20046;-59
2023/05/24 06:20:09;;;;;;;67.07;7.10;;;;;;;;;;4237988;28;20074;-59
2023/05/24 06:22:30;;;;;;;36.67;6.15;;;;;;;;;;4240070;28;20081;-59
2023/05/24 06:24:51;;;;;;;143.48;9.20;;;;;;;;;;4240371;28;20092;-59
2023/05/24 06:27:11;;;;;;;56.50;6.28;;;;;;;;;;4239951;28;20226;-59
2023/05/24 06:29:31;;;;;;;25.30;5.20;;;;;;;;;;4239071;28;20238;-59
2023/05/24 06:31:52;;;;;;;9.68;5.68;;;;;;;;;;4239215;28;20111;-59
2023/05/24 06:34:15;;;;;;;5.57;5.15;;;;;;;;;;4227723;28;20093;-59
2023/05/24 06:36:40;;;;;;;15.48;5.03;;;;;;;;;;4241109;28;20141;-59
2023/05/24 06:39:00;;;;;;;7.78;4.75;;;;;;;;;;4236889;28;20138;-59
2023/05/24 06:41:21;;;;;;;28.73;5.72;;;;;;;;;;4234757;28;20047;-59
2023/05/24 06:43:41;;;;;;;21.20;6.05;;;;;;;;;;4241000;28;20235;-59
2023/05/24 06:46:02;;;;;;;6.75;5.85;;;;;;;;;;4243954;28;20397;-59
2023/05/24 06:48:22;;;;;;;5.35;4.95;;;;;;;;;;4237747;28;20099;-59
2023/05/24 06:50:44;;;;;;;16.33;6.05;;;;;;;;;;4241746;28;20058;-59
2023/05/24 06:53:04;;;;;;;4.78;4.68;;;;;;;;;;4238227;28;20078;-59
2023/05/24 06:55:24;;;;;;;6.55;6.00;;;;;;;;;;4242707;28;20411;-59
2023/05/24 06:57:45;;;;;;;5.63;5.53;;;;;;;;;;4240907;28;20304;-59
2023/05/24 07:00:11;;;;;;;6.90;6.30;;;;;;;;;;4241720;28;20120;-59
2023/05/24 07:02:31;;;;;;;5.82;5.63;;;;;;;;;;4244540;28;20086;-59
2023/05/24 07:04:51;;;;;;;6.00;5.90;;;;;;;;;;4244219;28;20078;-59
2023/05/24 07:07:12;;;;;;;6.55;6.45;;;;;;;;;;4241037;28;20366;-59
2023/05/24 07:09:33;;;;;;;6.65;6.35;;;;;;;;;;4241552;28;20047;-59
2023/05/24 07:11:53;;;;;;;5.70;5.60;;;;;;;;;;4239360;28;20114;-59
2023/05/24 07:14:13;;;;;;;6.43;6.30;;;;;;;;;;4240334;28;20042;-59
2023/05/24 07:16:33;;;;;;;5.97;5.78;;;;;;;;;;4238070;27;20525;-59
2023/05/24 07:18:55;;;;;;;5.32;5.22;;;;;;;;;;4244682;28;20436;-59
2023/05/24 07:21:15;;;;;;;5.68;5.57;;;;;;;;;;4238984;28;20046;-59
2023/05/24 07:23:36;;;;;;;5.40;5.30;;;;;;;;;;4247359;28;20078;-58
2023/05/24 07:25:57;;;;;;;4.97;4.88;;;;;;;;;;4237428;28;20043;-59
2023/05/24 07:28:18;;;;;;;7.20;7.00;;;;;;;;;;4246059;28;20264;-59
2023/05/24 07:30:38;;;;;;;6.90;6.30;;;;;;;;;;4240614;28;20078;-58
2023/05/24 07:32:59;;;;;;;6.38;6.13;;;;;;;;;;4247172;28;20050;-59
2023/05/24 07:35:21;;;;;;;6.53;6.43;;;;;;;;;;4239975;28;20039;-58
2023/05/24 07:37:42;;;;;;;6.00;5.90;;;;;;;;;;4243458;28;20042;-59
2023/05/24 07:40:03;;;;;;;6.45;6.15;;;;;;;;;;4239810;28;20231;-59
2023/05/24 07:42:24;;;;;;;5.68;5.57;;;;;;;;;;4229124;28;20103;-58
2023/05/24 07:44:45;;;;;;;5.32;5.22;;;;;;;;;;4235252;28;20142;-59
2023/05/24 07:47:05;;;;;;;5.60;5.50;;;;;;;;;;4244276;28;20089;-58
2023/05/24 07:49:25;;;;;;;5.68;5.22;;;;;;;;;;4244754;28;20260;-58
2023/05/24 07:51:46;;;;;;;5.10;4.75;;;;;;;;;;4240821;28;20069;-59
2023/05/24 07:54:07;;;;;;;4.18;4.07;;;;;;;;;;4240598;28;20051;-59
2023/05/24 07:56:27;;;;;;;5.35;5.05;;;;;;;;;;4243319;28;20047;-59
2023/05/24 07:58:48;;;;;;;5.07;4.97;;;;;;;;;;4240871;28;20391;-59
2023/05/24 08:01:08;;;;;;;4.80;4.38;;;;;;;;;;4240102;28;20242;-56
2023/05/24 08:03:28;;;;;;;3.97;3.88;;;;;;;;;;4239445;28;20070;-56
2023/05/24 08:05:49;;;;;;;6.38;6.15;;;;;;;;;;4239297;28;20073;-57
2023/05/24 08:08:10;;;;;;;6.78;6.57;;;;;;;;;;4241445;28;20270;-56
2023/05/24 08:10:30;;;;;;;5.93;5.55;;;;;;;;;;4240969;28;20046;-56
2023/05/24 08:12:53;;;;;;;5.28;4.93;;;;;;;;;;4239109;28;20061;-56
2023/05/24 08:15:13;;;;;;;4.03;3.92;;;;;;;;;;4235013;28;20081;-56
2023/05/24 08:17:34;;;;;;;3.05;2.83;;;;;;;;;;4243511;28;20046;-57
2023/05/24 08:19:54;;;;;;;3.22;2.95;;;;;;;;;;4243479;28;20097;-57
2023/05/24 08:22:15;;;;;;;3.42;3.22;;;;;;;;;;4239213;28;20097;-57
2023/05/24 08:24:35;;;;;;;4.82;4.28;;;;;;;;;;4240208;28;20326;-57
2023/05/24 08:26:56;;;;;;;3.80;3.42;;;;;;;;;;4246019;28;20050;-57
2023/05/24 08:29:16;;;;;;;3.28;3.17;;;;;;;;;;4240926;28;20069;-57
2023/05/24 08:31:37;;;;;;;4.13;3.83;;;;;;;;;;4235947;28;20235;-57
2023/05/24 08:33:57;;;;;;;3.72;3.47;;;;;;;;;;4244274;28;20365;-57
2023/05/24 08:36:18;;;;;;;5.13;4.57;;;;;;;;;;4246849;28;20054;-57
2023/05/24 08:38:38;;;;;;;3.92;3.83;;;;;;;;;;4248172;28;20039;-57
2023/05/24 08:40:58;;;;;;;3.83;3.72;;;;;;;;;;4245281;28;20055;-57
2023/05/24 08:43:19;;;;;;;4.85;4.63;;;;;;;;;;4248356;28;20123;-57
2023/05/24 08:45:41;;;;;;;4.43;4.03;;;;;;;;;;4242898;28;20043;-56
2023/05/24 08:48:02;;;;;;;5.40;5.03;;;;;;;;;;4243465;28;20051;-56
2023/05/24 08:50:22;;;;;;;4.53;4.22;;;;;;;;;;4247485;27;20284;-56
2023/05/24 08:52:43;;;;;;;8.15;4.75;;;;;;;;;;4244914;28;20066;-56
2023/05/24 08:55:04;;;;;;;4.38;4.03;;;;;;;;;;4238441;28;20109;-56
2023/05/24 08:57:29;;;;;;;4.50;4.30;;;;;;;;;;4240870;28;20042;-56
2023/05/24 08:59:50;;;;;;;3.72;3.63;;;;;;;;;;4245663;28;20142;-56
2023/05/24 09:02:14;;;;;;;5.10;3.97;;;;;;;;;;4241185;28;20048;-56
2023/05/24 09:04:35;;;;;;;3.50;3.20;;;;;;;;;;4233964;28;20074;-56
2023/05/24 09:06:56;;;;;;;3.28;3.08;;;;;;;;;;4239263;28;20046;-56
2023/05/24 09:09:17;;;;;;;3.78;3.67;;;;;;;;;;4241191;28;20089;-56
2023/05/24 09:11:39;;;;;;;3.67;3.40;;;;;;;;;;4235763;28;20078;-57
2023/05/24 09:14:00;;;;;;;3.83;3.42;;;;;;;;;;4231104;28;20235;-56
2023/05/24 09:16:20;;;;;;;7.22;3.53;;;;;;;;;;4234594;28;20066;-56
2023/05/24 09:18:41;;;;;;;2.85;2.67;;;;;;;;;;4235919;28;20085;-57
2023/05/24 09:21:02;;;;;;;3.55;3.30;;;;;;;;;;4236942;28;20119;-57
2023/05/24 09:23:22;;;;;;;3.83;3.65;;;;;;;;;;4239691;28;20480;-56
2023/05/24 09:25:44;;;;;;;3.90;3.40;;;;;;;;;;4239778;28;20152;-56
2023/05/24 09:28:08;;;;;;;3.05;2.83;;;;;;;;;;4238660;28;20050;-56
2023/05/24 09:30:28;;;;;;;2.97;2.65;;;;;;;;;;4236912;28;20227;-56
2023/05/24 09:32:58;;;;;;;2.50;2.30;;;;;;;;;;4236686;28;20084;-56
2023/05/24 09:35:19;;;;;;;2.35;2.22;;;;;;;;;;4239178;28;20075;-56
2023/05/24 09:37:39;;;;;;;4.18;2.88;;;;;;;;;;4236122;28;20047;-56
2023/05/24 09:40:00;;;;;;;2.58;2.47;;;;;;;;;;4237619;28;20046;-56
2023/05/24 09:42:25;;;;;;;2.80;2.70;;;;;;;;;;4235592;28;20047;-57
2023/05/24 09:44:46;;;;;;;3.67;2.60;;;;;;;;;;4244169;28;20042;-56
2023/05/24 09:47:07;;;;;;;2.22;2.13;;;;;;;;;;4243977;28;20064;-56
2023/05/24 09:49:28;;;;;;;3.40;2.55;;;;;;;;;;4239752;28;20046;-57
2023/05/24 09:51:48;;;;;;;2.95;2.65;;;;;;;;;;4236786;28;20111;-56
2023/05/24 09:54:08;;;;;;;3.10;2.80;;;;;;;;;;4236959;28;20051;-56
2023/05/24 09:56:35;;;;;;;3.00;2.72;;;;;;;;;;4240499;28;20080;-56
2023/05/24 09:58:55;;;;;;;2.13;2.03;;;;;;;;;;4236402;28;20047;-56
2023/05/24 10:01:17;;;;;;;3.33;2.92;;;;;;;;;;4238275;28;20054;-57
2023/05/24 10:03:38;;;;;;;2.22;1.85;;;;;;;;;;4241293;28;20077;-57
2023/05/24 10:05:59;;;;;;;2.45;2.25;;;;;;;;;;4240573;28;20157;-56
2023/05/24 10:08:21;;;;;;;4.20;2.60;;;;;;;;;;4244674;28;20362;-56
2023/05/24 10:10:42;;;;;;;2.13;2.03;;;;;;;;;;4244583;28;20047;-57
2023/05/24 10:13:03;;;;;;;2.30;1.60;;;;;;;;;;4245940;28;20038;-56
2023/05/24 10:15:24;;;;;;;2.03;1.92;;;;;;;;;;4242557;28;20069;-56
2023/05/24 10:17:44;;;;;;;2.22;2.03;;;;;;;;;;4241586;28;20350;-56
2023/05/24 10:20:05;;;;;;;1.70;1.63;;;;;;;;;;4244319;28;20103;-57
2023/05/24 10:22:27;;;;;;;2.23;2.13;;;;;;;;;;4242608;28;20096;-56
2023/05/24 10:24:49;;;;;;;2.65;2.47;;;;;;;;;;4237568;28;20287;-56
2023/05/24 10:27:21;;;;;;;2.80;2.60;;;;;;;;;;4244283;28;20095;-57
2023/05/24 10:29:58;;;;;;;3.00;2.03;;;;;;;;;;4233269;28;20070;-57
2023/05/24 10:32:19;;;;;;;2.13;1.92;;;;;;;;;;4235785;28;20089;-56
2023/05/24 10:34:41;;;;;;;1.73;1.63;;;;;;;;;;4236927;28;20058;-56
2023/05/24 10:37:01;;;;;;;1.80;1.70;;;;;;;;;;4244749;28;20054;-57
2023/05/24 10:39:22;;;;;;;2.58;1.40;;;;;;;;;;4243573;28;20074;-57
2023/05/24 10:41:42;;;;;;;2.25;1.60;;;;;;;;;;4234503;28;20376;-57
2023/05/24 10:44:10;;;;;;;1.50;1.50;;;;;;;;;;4244145;28;20111;-57
2023/05/24 10:46:31;;;;;;;1.80;1.65;;;;;;;;;;4243121;28;20107;-56
2023/05/24 10:48:59;;;;;;;7.68;2.45;;;;;;;;;;4239873;28;20234;-57
2023/05/24 10:51:38;;;;;;;1.40;1.30;;;;;;;;;;4231917;28;20055;-57
2023/05/24 10:54:09;;;;;;;1.90;1.80;;;;;;;;;;4243673;28;20047;-57
2023/05/24 10:56:30;;;;;;;2.50;1.30;;;;;;;;;;4244892;28;20117;-56
2023/05/24 10:58:57;;;;;;;2.17;1.98;;;;;;;;;;4241533;28;20058;-57
2023/05/24 11:01:26;;;;;;;2.10;1.40;;;;;;;;;;4241940;28;20043;-56
2023/05/24 11:03:48;;;;;;;1.52;1.42;;;;;;;;;;4240323;28;20094;-56
2023/05/24 11:06:09;;;;;;;1.83;1.70;;;;;;;;;;4242347;28;20123;-56
2023/05/24 11:08:30;;;;;;;1.77;1.60;;;;;;;;;;4241989;28;20108;-56
2023/05/24 11:11:03;;;;;;;5.13;1.20;;;;;;;;;;4244464;28;20055;-56
2023/05/24 11:13:42;;;;;;;1.67;1.55;;;;;;;;;;4230689;28;20058;-56
2023/05/24 11:16:03;;;;;;;1.33;1.20;;;;;;;;;;4243768;28;20050;-56
2023/05/24 11:18:23;;;;;;;4.45;1.77;;;;;;;;;;4244176;28;20116;-57
2023/05/24 11:20:45;;;;;;;1.55;1.45;;;;;;;;;;4239820;28;20378;-57
2023/05/24 11:23:06;;;;;;;;;;;;;;;;;;4243644;28;20131;-56
2023/05/24 11:25:27;;;;;;;2.05;1.10;;;;;;;;;;4238789;28;20143;-56
2023/05/24 11:27:47;;;;;;;1.70;1.35;;;;;;;;;;4244683;28;20096;-56
2023/05/24 11:30:08;;;;;;;1.60;1.50;;;;;;;;;;4237115;28;20276;-56
2023/05/24 11:32:28;;;;;;;4.15;1.20;;;;;;;;;;4242936;28;20074;-56
2023/05/24 11:34:49;;;;;;;4.30;1.30;;;;;;;;;;4240446;28;20102;-57
2023/05/24 11:37:10;;;;;;;2.05;1.25;;;;;;;;;;4241364;28;20054;-57
2023/05/24 11:39:31;;;;;;;6.47;1.95;;;;;;;;;;4242999;28;20117;-57
2023/05/24 11:41:53;;;;;;;6.38;1.60;;;;;;;;;;4245106;28;20111;-56
2023/05/24 11:44:17;;;;;;;1.98;1.00;;;;;;;;;;4243843;28;20050;-56
2023/05/24 11:46:42;;;;;;;1.55;1.20;;;;;;;;;;4244758;28;20046;-56
2023/05/24 11:49:03;;;;;;;1.45;0.90;;;;;;;;;;4238846;28;20092;-56
2023/05/24 11:51:30;;;;;;;0.90;0.80;;;;;;;;;;4243790;28;20051;-55
2023/05/24 11:53:50;;;;;;;0.90;0.90;;;;;;;;;;4240910;28;20210;-55
2023/05/24 11:56:14;;;;;;;1.48;1.00;;;;;;;;;;4244255;28;20373;-55
2023/05/24 11:58:50;;;;;;;0.90;0.90;;;;;;;;;;4237856;28;20050;-56
2023/05/24 12:01:27;;;;;;;4.32;1.70;;;;;;;;;;4242427;28;20039;-56
2023/05/24 12:03:47;;;;;;;1.00;1.00;;;;;;;;;;4249787;27;20073;-56
2023/05/24 12:06:08;;;;;;;0.90;0.90;;;;;;;;;;4237873;28;20046;-56
2023/05/24 12:08:28;;;;;;;0.93;0.93;;;;;;;;;;4245895;28;20047;-56
2023/05/24 12:10:50;;;;;;;4.00;1.00;;;;;;;;;;4243834;28;20042;-56
2023/05/24 12:13:22;;;;;;;2.97;0.88;;;;;;;;;;4245101;28;20077;-56
2023/05/24 12:15:41;;;;;;;1.52;1.00;;;;;;;;;;4237850;28;20050;-56
2023/05/24 12:18:02;;;;;;;1.02;0.90;;;;;;;;;;4246292;28;20055;-56
2023/05/24 12:20:23;;;;;;;1.65;1.13;;;;;;;;;;4243890;28;20112;-56
2023/05/24 12:22:53;;;;;;;0.90;0.90;;;;;;;;;;4239807;28;20231;-56
2023/05/24 12:25:15;;;;;;;0.90;0.90;;;;;;;;;;4239281;28;20103;-57
2023/05/24 12:27:35;;;;;;;2.38;1.17;;;;;;;;;;4245779;28;20051;-57
2023/05/24 12:29:55;;;;;;;1.10;1.10;;;;;;;;;;4242649;28;20042;-57
2023/05/24 12:32:16;;;;;;;12.35;1.70;;;;;;;;;;4238071;28;20046;-57
2023/05/24 12:34:37;;;;;;;1.40;0.90;;;;;;;;;;4240225;28;20066;-57
2023/05/24 12:36:57;;;;;;;0.98;0.90;;;;;;;;;;4245422;28;20054;-56
2023/05/24 12:39:21;;;;;;;0.80;0.80;;;;;;;;;;4245397;28;20050;-57
2023/05/24 12:41:42;;;;;;;1.23;0.80;;;;;;;;;;4244613;27;20043;-56
2023/05/24 12:44:02;;;;;;;0.80;0.80;;;;;;;;;;4244076;28;20042;-57
2023/05/24 12:46:22;;;;;;;0.93;0.90;;;;;;;;;;4244239;28;20070;-56
2023/05/24 12:48:43;;;;;;;3.20;0.90;;;;;;;;;;4241150;28;20054;-56
2023/05/24 12:51:03;;;;;;;1.05;0.90;;;;;;;;;;4241600;28;20366;-56
2023/05/24 12:53:24;;;;;;;1.50;0.80;;;;;;;;;;4240727;28;20107;-56
2023/05/24 12:55:45;;;;;;;0.80;0.80;;;;;;;;;;4240869;28;20050;-56
2023/05/24 12:58:08;;;;;;;1.10;0.80;;;;;;;;;;4240081;28;20070;-56
2023/05/24 13:00:28;;;;;;;1.00;0.82;;;;;;;;;;4239180;28;20268;-56
2023/05/24 13:02:51;;;;;;;1.10;0.90;;;;;;;;;;4241897;28;20074;-56
2023/05/24 13:05:11;;;;;;;0.80;0.80;;;;;;;;;;4237222;28;20121;-56
2023/05/24 13:07:31;;;;;;;0.88;0.80;;;;;;;;;;4237348;28;20071;-56
2023/05/24 13:09:52;;;;;;;1.30;0.80;;;;;;;;;;4236060;28;20054;-56
2023/05/24 13:12:12;;;;;;;0.90;0.90;;;;;;;;;;4245199;28;20072;-56
2023/05/24 13:14:33;;;;;;;2.15;1.08;;;;;;;;;;4240261;28;20231;-56
2023/05/24 13:16:53;;;;;;;0.90;0.90;;;;;;;;;;4242602;28;20092;-57
2023/05/24 13:19:13;;;;;;;1.40;0.80;;;;;;;;;;4240889;28;20089;-56
2023/05/24 13:21:34;;;;;;;0.80;0.80;;;;;;;;;;4241618;28;20042;-56
2023/05/24 13:23:55;;;;;;;0.95;0.95;;;;;;;;;;4244539;28;20065;-56
2023/05/24 13:26:15;;;;;;;11.90;1.60;;;;;;;;;;4238510;28;20059;-56
2023/05/24 13:28:35;;;;;;;0.80;0.80;;;;;;;;;;4240140;28;20235;-56
2023/05/24 13:30:56;;;;;;;1.17;0.90;;;;;;;;;;4240988;28;20088;-56
2023/05/24 13:33:16;;;;;;;0.95;0.90;;;;;;;;;;4239251;28;20086;-56
2023/05/24 13:35:38;;;;;;;1.23;0.80;;;;;;;;;;4227089;28;20274;-56
2023/05/24 13:37:59;;;;;;;2.42;0.90;;;;;;;;;;4233706;28;20097;-56
2023/05/24 13:40:19;;;;;;;4.57;0.90;;;;;;;;;;4240091;28;20061;-57
2023/05/24 13:42:39;;;;;;;1.00;0.82;;;;;;;;;;4234472;28;20086;-56
2023/05/24 13:45:02;;;;;;;1.08;0.70;;;;;;;;;;4229830;28;20078;-56
2023/05/24 13:47:22;;;;;;;2.38;0.70;;;;;;;;;;4236540;28;20046;-56
2023/05/24 13:49:59;;;;;;;0.63;0.63;;;;;;;;;;4234402;28;20074;-56
2023/05/24 13:52:19;;;;;;;1.98;0.70;;;;;;;;;;4230572;28;20078;-56
2023/05/24 13:54:39;;;;;;;1.60;0.80;;;;;;;;;;4231107;28;20210;-56
2023/05/24 13:57:01;;;;;;;1.63;0.93;;;;;;;;;;4239231;28;20055;-56
2023/05/24 13:59:21;;;;;;;1.52;0.93;;;;;;;;;;4225872;28;20057;-56
2023/05/24 14:01:42;;;;;;;0.70;0.70;;;;;;;;;;4253241;28;20111;-56
2023/05/24 14:04:03;;;;;;;0.80;0.80;;;;;;;;;;4247333;28;20121;-56